sensor_id;sensor_type;location;lat;lon;timestamp;temperature;humidity
80495;DHT22;69819;48.798;11.770;2023-08-30T00:00:47;18.90;61.20
80495;DHT22;69819;48.798;11.770;2023-08-30T00:03:13;18.90;61.30
80495;DHT22;69819;48.798;11.770;2023-08-30T00:05:39;18.80;61.20
80495;DHT22;69819;48.798;11.770;2023-08-30T00:08:06;18.80;61.30
80495;DHT22;69819;48.798;11.770;2023-08-30T00:10:32;18.80;61.20
80495;DHT22;69819;48.798;11.770;2023-08-30T00:12:58;18.80;61.20
80495;DHT22;69819;48.798;11.770;2023-08-30T00:15:23;18.80;61.20
80495;DHT22;69819;48.798;11.770;2023-08-30T00:17:50;18.80;61.20
80495;DHT22;69819;48.798;11.770;2023-08-30T00:20:18;18.80;61.30
80495;DHT22;69819;48.798;11.770;2023-08-30T00:22:44;18.80;61.40
80495;DHT22;69819;48.798;11.770;2023-08-30T00:25:10;18.70;61.30
80495;DHT22;69819;48.798;11.770;2023-08-30T00:27:35;18.70;61.30
80495;DHT22;69819;48.798;11.770;2023-08-30T00:30:01;18.70;61.40
80495;DHT22;69819;48.798;11.770;2023-08-30T00:32:27;18.70;61.40
80495;DHT22;69819;48.798;11.770;2023-08-30T00:34:53;18.70;61.50
80495;DHT22;69819;48.798;11.770;2023-08-30T00:37:19;18.70;61.60
80495;DHT22;69819;48.798;11.770;2023-08-30T00:39:44;18.70;61.50
80495;DHT22;69819;48.798;11.770;2023-08-30T00:42:10;18.60;61.40
80495;DHT22;69819;48.798;11.770;2023-08-30T00:44:36;18.60;61.40
80495;DHT22;69819;48.798;11.770;2023-08-30T00:47:02;18.60;61.40
80495;DHT22;69819;48.798;11.770;2023-08-30T00:49:32;18.60;61.40
80495;DHT22;69819;48.798;11.770;2023-08-30T00:52:00;18.60;62.10
80495;DHT22;69819;48.798;11.770;2023-08-30T00:54:28;18.60;61.40
80495;DHT22;69819;48.798;11.770;2023-08-30T00:56:55;18.60;61.40
80495;DHT22;69819;48.798;11.770;2023-08-30T00:59:21;18.60;61.40
80495;DHT22;69819;48.798;11.770;2023-08-30T01:01:48;18.60;61.50
80495;DHT22;69819;48.798;11.770;2023-08-30T01:04:14;18.60;61.50
80495;DHT22;69819;48.798;11.770;2023-08-30T01:06:40;18.60;61.40
80495;DHT22;69819;48.798;11.770;2023-08-30T01:09:07;18.60;62.10
80495;DHT22;69819;48.798;11.770;2023-08-30T01:11:57;18.60;61.60
80495;DHT22;69819;48.798;11.770;2023-08-30T01:17:14;18.60;61.60
80495;DHT22;69819;48.798;11.770;2023-08-30T01:25:15;18.60;61.60
80495;DHT22;69819;48.798;11.770;2023-08-30T01:28:04;18.60;61.80
80495;DHT22;69819;48.798;11.770;2023-08-30T01:30:34;18.60;61.50
80495;DHT22;69819;48.798;11.770;2023-08-30T01:33:03;18.60;61.40
80495;DHT22;69819;48.798;11.770;2023-08-30T01:35:32;18.60;61.40
80495;DHT22;69819;48.798;11.770;2023-08-30T01:38:03;18.60;61.50
80495;DHT22;69819;48.798;11.770;2023-08-30T01:40:36;18.60;61.60
80495;DHT22;69819;48.798;11.770;2023-08-30T01:43:06;18.60;61.60
80495;DHT22;69819;48.798;11.770;2023-08-30T01:45:36;18.60;61.60
80495;DHT22;69819;48.798;11.770;2023-08-30T01:48:08;18.60;61.50
80495;DHT22;69819;48.798;11.770;2023-08-30T01:50:36;18.60;61.60
80495;DHT22;69819;48.798;11.770;2023-08-30T01:53:03;18.60;61.60
80495;DHT22;69819;48.798;11.770;2023-08-30T01:55:30;18.50;61.50
80495;DHT22;69819;48.798;11.770;2023-08-30T01:57:58;18.60;61.60
80495;DHT22;69819;48.798;11.770;2023-08-30T02:00:24;18.60;61.70
80495;DHT22;69819;48.798;11.770;2023-08-30T02:02:50;18.60;61.60
80495;DHT22;69819;48.798;11.770;2023-08-30T02:05:16;18.50;61.50
80495;DHT22;69819;48.798;11.770;2023-08-30T02:10:45;18.50;61.50
80495;DHT22;69819;48.798;11.770;2023-08-30T02:13:26;18.50;61.60
80495;DHT22;69819;48.798;11.770;2023-08-30T02:15:55;18.50;61.50
80495;DHT22;69819;48.798;11.770;2023-08-30T02:18:25;18.50;61.50
80495;DHT22;69819;48.798;11.770;2023-08-30T02:20:52;18.50;61.60
80495;DHT22;69819;48.798;11.770;2023-08-30T02:23:18;18.50;61.60
80495;DHT22;69819;48.798;11.770;2023-08-30T02:25:44;18.50;61.60
80495;DHT22;69819;48.798;11.770;2023-08-30T02:28:10;18.40;61.60
80495;DHT22;69819;48.798;11.770;2023-08-30T02:30:36;18.40;61.60
80495;DHT22;69819;48.798;11.770;2023-08-30T02:33:02;18.40;61.60
80495;DHT22;69819;48.798;11.770;2023-08-30T02:35:28;18.40;61.70
80495;DHT22;69819;48.798;11.770;2023-08-30T02:37:53;18.40;61.70
80495;DHT22;69819;48.798;11.770;2023-08-30T02:40:19;18.40;61.70
80495;DHT22;69819;48.798;11.770;2023-08-30T02:42:45;18.40;61.60
80495;DHT22;69819;48.798;11.770;2023-08-30T02:45:10;18.40;61.70
80495;DHT22;69819;48.798;11.770;2023-08-30T02:47:36;18.40;61.60
80495;DHT22;69819;48.798;11.770;2023-08-30T02:50:02;18.30;61.60
80495;DHT22;69819;48.798;11.770;2023-08-30T02:52:28;18.30;61.70
80495;DHT22;69819;48.798;11.770;2023-08-30T02:54:54;18.30;61.70
80495;DHT22;69819;48.798;11.770;2023-08-30T02:57:20;18.30;62.50
80495;DHT22;69819;48.798;11.770;2023-08-30T02:59:45;18.30;61.70
80495;DHT22;69819;48.798;11.770;2023-08-30T03:02:11;18.20;61.70
80495;DHT22;69819;48.798;11.770;2023-08-30T03:04:37;18.20;61.80
80495;DHT22;69819;48.798;11.770;2023-08-30T03:07:04;18.20;61.80
80495;DHT22;69819;48.798;11.770;2023-08-30T03:09:29;18.20;61.80
80495;DHT22;69819;48.798;11.770;2023-08-30T03:11:55;18.20;61.80
80495;DHT22;69819;48.798;11.770;2023-08-30T03:14:21;18.10;61.80
80495;DHT22;69819;48.798;11.770;2023-08-30T03:16:47;18.10;61.80
80495;DHT22;69819;48.798;11.770;2023-08-30T03:19:13;18.20;62.00
80495;DHT22;69819;48.798;11.770;2023-08-30T03:21:39;18.10;61.80
80495;DHT22;69819;48.798;11.770;2023-08-30T03:24:05;18.00;61.60
80495;DHT22;69819;48.798;11.770;2023-08-30T03:26:30;18.10;61.80
80495;DHT22;69819;48.798;11.770;2023-08-30T03:28:56;18.10;61.80
80495;DHT22;69819;48.798;11.770;2023-08-30T03:31:22;18.00;61.70
80495;DHT22;69819;48.798;11.770;2023-08-30T03:33:48;18.00;61.70
80495;DHT22;69819;48.798;11.770;2023-08-30T03:36:16;17.90;61.70
80495;DHT22;69819;48.798;11.770;2023-08-30T03:38:44;17.90;61.70
80495;DHT22;69819;48.798;11.770;2023-08-30T03:41:11;17.90;61.80
80495;DHT22;69819;48.798;11.770;2023-08-30T03:43:37;17.80;61.70
80495;DHT22;69819;48.798;11.770;2023-08-30T03:46:03;17.80;61.80
80495;DHT22;69819;48.798;11.770;2023-08-30T03:48:30;17.80;61.70
80495;DHT22;69819;48.798;11.770;2023-08-30T03:50:56;17.70;61.70
80495;DHT22;69819;48.798;11.770;2023-08-30T03:53:23;17.70;61.70
80495;DHT22;69819;48.798;11.770;2023-08-30T03:55:50;17.70;61.80
80495;DHT22;69819;48.798;11.770;2023-08-30T03:58:17;17.60;61.70
80495;DHT22;69819;48.798;11.770;2023-08-30T04:00:44;17.60;61.90
80495;DHT22;69819;48.798;11.770;2023-08-30T04:03:10;17.60;62.00
80495;DHT22;69819;48.798;11.770;2023-08-30T04:05:39;17.60;62.20
80495;DHT22;69819;48.798;11.770;2023-08-30T04:08:06;17.60;62.30
80495;DHT22;69819;48.798;11.770;2023-08-30T04:10:39;17.60;62.50
80495;DHT22;69819;48.798;11.770;2023-08-30T04:13:08;17.60;62.80
80495;DHT22;69819;48.798;11.770;2023-08-30T04:15:37;17.60;63.50
80495;DHT22;69819;48.798;11.770;2023-08-30T04:18:05;17.70;63.10
80495;DHT22;69819;48.798;11.770;2023-08-30T04:20:32;17.70;63.20
80495;DHT22;69819;48.798;11.770;2023-08-30T04:22:59;17.70;63.20
80495;DHT22;69819;48.798;11.770;2023-08-30T04:25:27;17.80;63.30
80495;DHT22;69819;48.798;11.770;2023-08-30T04:27:54;17.90;63.40
80495;DHT22;69819;48.798;11.770;2023-08-30T04:30:20;17.90;63.40
80495;DHT22;69819;48.798;11.770;2023-08-30T04:32:46;18.00;63.40
80495;DHT22;69819;48.798;11.770;2023-08-30T04:35:12;18.00;63.30
80495;DHT22;69819;48.798;11.770;2023-08-30T04:37:38;18.10;63.30
80495;DHT22;69819;48.798;11.770;2023-08-30T04:40:09;18.10;63.20
80495;DHT22;69819;48.798;11.770;2023-08-30T04:42:35;18.20;63.20
80495;DHT22;69819;48.798;11.770;2023-08-30T04:45:02;18.20;63.10
80495;DHT22;69819;48.798;11.770;2023-08-30T04:47:29;18.30;63.10
80495;DHT22;69819;48.798;11.770;2023-08-30T04:49:57;18.30;63.00
80495;DHT22;69819;48.798;11.770;2023-08-30T04:52:23;18.40;63.00
80495;DHT22;69819;48.798;11.770;2023-08-30T04:54:49;18.40;63.00
80495;DHT22;69819;48.798;11.770;2023-08-30T04:57:15;18.40;62.90
80495;DHT22;69819;48.798;11.770;2023-08-30T04:59:45;18.50;63.00
80495;DHT22;69819;48.798;11.770;2023-08-30T05:02:11;18.50;63.00
80495;DHT22;69819;48.798;11.770;2023-08-30T05:04:38;18.60;63.00
80495;DHT22;69819;48.798;11.770;2023-08-30T05:07:04;18.60;62.90
80495;DHT22;69819;48.798;11.770;2023-08-30T05:09:30;18.60;62.80
80495;DHT22;69819;48.798;11.770;2023-08-30T05:11:57;18.60;62.70
80495;DHT22;69819;48.798;11.770;2023-08-30T05:14:23;18.60;62.60
80495;DHT22;69819;48.798;11.770;2023-08-30T05:16:49;18.70;62.70
80495;DHT22;69819;48.798;11.770;2023-08-30T05:19:15;18.70;62.60
80495;DHT22;69819;48.798;11.770;2023-08-30T05:21:45;18.70;62.60
80495;DHT22;69819;48.798;11.770;2023-08-30T05:24:11;18.80;62.70
80495;DHT22;69819;48.798;11.770;2023-08-30T05:26:37;18.70;62.50
80495;DHT22;69819;48.798;11.770;2023-08-30T05:29:05;18.80;62.60
80495;DHT22;69819;48.798;11.770;2023-08-30T05:31:31;18.80;62.60
80495;DHT22;69819;48.798;11.770;2023-08-30T05:33:57;18.80;62.60
80495;DHT22;69819;48.798;11.770;2023-08-30T05:36:22;18.90;62.60
80495;DHT22;69819;48.798;11.770;2023-08-30T05:38:48;18.90;62.60
80495;DHT22;69819;48.798;11.770;2023-08-30T05:41:14;18.90;62.60
80495;DHT22;69819;48.798;11.770;2023-08-30T05:43:40;18.90;62.50
80495;DHT22;69819;48.798;11.770;2023-08-30T05:46:06;19.00;62.60
80495;DHT22;69819;48.798;11.770;2023-08-30T05:48:37;19.00;62.60
80495;DHT22;69819;48.798;11.770;2023-08-30T05:51:03;19.10;62.60
80495;DHT22;69819;48.798;11.770;2023-08-30T05:53:29;19.10;62.60
80495;DHT22;69819;48.798;11.770;2023-08-30T05:55:55;19.10;62.60
80495;DHT22;69819;48.798;11.770;2023-08-30T05:58:20;19.20;62.70
80495;DHT22;69819;48.798;11.770;2023-08-30T06:00:46;19.20;62.70
80495;DHT22;69819;48.798;11.770;2023-08-30T06:03:12;19.20;62.60
80495;DHT22;69819;48.798;11.770;2023-08-30T06:05:38;19.30;62.80
80495;DHT22;69819;48.798;11.770;2023-08-30T06:08:04;19.40;62.90
80495;DHT22;69819;48.798;11.770;2023-08-30T06:10:30;19.40;62.90
80495;DHT22;69819;48.798;11.770;2023-08-30T06:12:55;19.50;62.90
80495;DHT22;69819;48.798;11.770;2023-08-30T06:15:21;19.60;63.00
80495;DHT22;69819;48.798;11.770;2023-08-30T06:17:47;19.70;62.80
80495;DHT22;69819;48.798;11.770;2023-08-30T06:20:13;19.80;62.90
80495;DHT22;69819;48.798;11.770;2023-08-30T06:22:39;19.90;62.90
80495;DHT22;69819;48.798;11.770;2023-08-30T06:25:08;19.90;62.80
80495;DHT22;69819;48.798;11.770;2023-08-30T06:27:41;20.00;62.90
80495;DHT22;69819;48.798;11.770;2023-08-30T06:30:11;20.10;63.10
80495;DHT22;69819;48.798;11.770;2023-08-30T06:32:38;20.30;63.10
80495;DHT22;69819;48.798;11.770;2023-08-30T06:35:04;20.30;62.90
80495;DHT22;69819;48.798;11.770;2023-08-30T06:37:30;20.40;62.90
80495;DHT22;69819;48.798;11.770;2023-08-30T06:39:55;20.60;62.80
80495;DHT22;69819;48.798;11.770;2023-08-30T06:42:21;20.70;62.70
80495;DHT22;69819;48.798;11.770;2023-08-30T06:44:47;20.80;62.50
80495;DHT22;69819;48.798;11.770;2023-08-30T06:47:13;20.90;62.30
80495;DHT22;69819;48.798;11.770;2023-08-30T06:49:38;20.90;61.90
80495;DHT22;69819;48.798;11.770;2023-08-30T06:52:04;21.00;61.70
80495;DHT22;69819;48.798;11.770;2023-08-30T06:54:33;21.00;61.50
80495;DHT22;69819;48.798;11.770;2023-08-30T06:57:00;21.10;61.40
80495;DHT22;69819;48.798;11.770;2023-08-30T06:59:29;21.10;61.40
80495;DHT22;69819;48.798;11.770;2023-08-30T07:01:55;21.10;61.30
80495;DHT22;69819;48.798;11.770;2023-08-30T07:04:21;21.20;61.50
80495;DHT22;69819;48.798;11.770;2023-08-30T07:06:47;21.20;61.40
80495;DHT22;69819;48.798;11.770;2023-08-30T07:09:13;21.30;61.50
80495;DHT22;69819;48.798;11.770;2023-08-30T07:11:39;21.40;61.80
80495;DHT22;69819;48.798;11.770;2023-08-30T07:14:11;21.50;61.90
80495;DHT22;69819;48.798;11.770;2023-08-30T07:16:38;21.60;62.10
80495;DHT22;69819;48.798;11.770;2023-08-30T07:19:03;21.80;62.40
80495;DHT22;69819;48.798;11.770;2023-08-30T07:21:29;22.10;63.30
80495;DHT22;69819;48.798;11.770;2023-08-30T07:23:55;22.50;63.90
80495;DHT22;69819;48.798;11.770;2023-08-30T07:26:21;22.90;63.90
80495;DHT22;69819;48.798;11.770;2023-08-30T07:28:47;23.30;63.60
80495;DHT22;69819;48.798;11.770;2023-08-30T07:31:12;23.80;63.10
80495;DHT22;69819;48.798;11.770;2023-08-30T07:33:44;24.10;62.50
80495;DHT22;69819;48.798;11.770;2023-08-30T07:36:10;24.50;61.80
80495;DHT22;69819;48.798;11.770;2023-08-30T07:38:37;24.80;61.20
80495;DHT22;69819;48.798;11.770;2023-08-30T07:41:03;25.10;60.50
80495;DHT22;69819;48.798;11.770;2023-08-30T07:43:29;25.30;59.90
80495;DHT22;69819;48.798;11.770;2023-08-30T07:45:55;25.50;59.90
80495;DHT22;69819;48.798;11.770;2023-08-30T07:48:22;25.70;58.90
80495;DHT22;69819;48.798;11.770;2023-08-30T07:50:47;25.80;58.40
80495;DHT22;69819;48.798;11.770;2023-08-30T07:53:13;25.90;58.30
80495;DHT22;69819;48.798;11.770;2023-08-30T07:55:39;26.00;58.00
80495;DHT22;69819;48.798;11.770;2023-08-30T07:58:05;26.10;57.90
80495;DHT22;69819;48.798;11.770;2023-08-30T08:00:31;26.20;57.70
80495;DHT22;69819;48.798;11.770;2023-08-30T08:02:57;26.30;57.60
80495;DHT22;69819;48.798;11.770;2023-08-30T08:05:23;26.40;57.50
80495;DHT22;69819;48.798;11.770;2023-08-30T08:07:52;26.60;57.30
80495;DHT22;69819;48.798;11.770;2023-08-30T08:10:19;26.70;56.80
80495;DHT22;69819;48.798;11.770;2023-08-30T08:12:45;26.80;56.90
80495;DHT22;69819;48.798;11.770;2023-08-30T08:15:11;26.90;57.00
80495;DHT22;69819;48.798;11.770;2023-08-30T08:17:37;27.20;57.10
80495;DHT22;69819;48.798;11.770;2023-08-30T08:20:04;27.50;57.80
80495;DHT22;69819;48.798;11.770;2023-08-30T08:22:31;27.90;58.00
80495;DHT22;69819;48.798;11.770;2023-08-30T08:24:57;28.30;57.60
80495;DHT22;69819;48.798;11.770;2023-08-30T08:27:24;28.70;56.60
80495;DHT22;69819;48.798;11.770;2023-08-30T08:29:51;29.00;55.50
80495;DHT22;69819;48.798;11.770;2023-08-30T08:32:16;29.10;54.80
80495;DHT22;69819;48.798;11.770;2023-08-30T08:34:42;29.20;54.10
80495;DHT22;69819;48.798;11.770;2023-08-30T08:37:08;29.20;53.80
80495;DHT22;69819;48.798;11.770;2023-08-30T08:39:34;29.20;53.60
80495;DHT22;69819;48.798;11.770;2023-08-30T08:42:00;29.30;53.50
80495;DHT22;69819;48.798;11.770;2023-08-30T08:44:31;29.20;53.30
80495;DHT22;69819;48.798;11.770;2023-08-30T08:46:59;29.20;52.70
80495;DHT22;69819;48.798;11.770;2023-08-30T08:49:26;29.30;52.90
80495;DHT22;69819;48.798;11.770;2023-08-30T08:51:54;29.30;52.80
80495;DHT22;69819;48.798;11.770;2023-08-30T08:54:20;29.40;52.60
80495;DHT22;69819;48.798;11.770;2023-08-30T08:56:47;29.40;52.60
80495;DHT22;69819;48.798;11.770;2023-08-30T08:59:13;29.50;52.50
80495;DHT22;69819;48.798;11.770;2023-08-30T09:01:39;29.50;52.20
80495;DHT22;69819;48.798;11.770;2023-08-30T09:04:08;29.60;52.20
80495;DHT22;69819;48.798;11.770;2023-08-30T09:06:36;29.70;52.00
80495;DHT22;69819;48.798;11.770;2023-08-30T09:09:04;29.70;51.80
80495;DHT22;69819;48.798;11.770;2023-08-30T09:11:31;29.80;51.50
80495;DHT22;69819;48.798;11.770;2023-08-30T09:13:57;29.90;51.40
80495;DHT22;69819;48.798;11.770;2023-08-30T09:16:23;30.00;51.10
80495;DHT22;69819;48.798;11.770;2023-08-30T09:19:03;30.10;51.00
80495;DHT22;69819;48.798;11.770;2023-08-30T09:21:30;30.10;49.60
80495;DHT22;69819;48.798;11.770;2023-08-30T09:24:02;30.20;50.70
80495;DHT22;69819;48.798;11.770;2023-08-30T09:26:30;30.30;50.20
80495;DHT22;69819;48.798;11.770;2023-08-30T09:29:07;30.40;50.50
80495;DHT22;69819;48.798;11.770;2023-08-30T09:31:37;30.40;49.40
80495;DHT22;69819;48.798;11.770;2023-08-30T09:34:06;30.50;50.30
80495;DHT22;69819;48.798;11.770;2023-08-30T09:36:39;30.60;50.00
80495;DHT22;69819;48.798;11.770;2023-08-30T09:39:11;30.70;49.00
80495;DHT22;69819;48.798;11.770;2023-08-30T09:41:56;30.70;49.20
80495;DHT22;69819;48.798;11.770;2023-08-30T09:44:22;30.80;48.10
80495;DHT22;69819;48.798;11.770;2023-08-30T09:46:54;30.80;49.20
80495;DHT22;69819;48.798;11.770;2023-08-30T09:49:25;30.80;48.40
80495;DHT22;69819;48.798;11.770;2023-08-30T09:51:53;30.80;48.30
80495;DHT22;69819;48.798;11.770;2023-08-30T09:54:21;30.80;48.60
80495;DHT22;69819;48.798;11.770;2023-08-30T09:56:48;30.80;48.60
80495;DHT22;69819;48.798;11.770;2023-08-30T09:59:18;30.80;48.50
80495;DHT22;69819;48.798;11.770;2023-08-30T10:01:46;30.90;48.60
80495;DHT22;69819;48.798;11.770;2023-08-30T10:04:20;31.00;48.30
80495;DHT22;69819;48.798;11.770;2023-08-30T10:06:47;31.20;48.70
80495;DHT22;69819;48.798;11.770;2023-08-30T10:09:14;31.30;48.40
80495;DHT22;69819;48.798;11.770;2023-08-30T10:11:40;31.40;47.90
80495;DHT22;69819;48.798;11.770;2023-08-30T10:14:07;31.60;47.80
80495;DHT22;69819;48.798;11.770;2023-08-30T10:16:43;31.60;47.20
80495;DHT22;69819;48.798;11.770;2023-08-30T10:19:26;31.60;46.00
80495;DHT22;69819;48.798;11.770;2023-08-30T10:22:03;31.60;46.00
80495;DHT22;69819;48.798;11.770;2023-08-30T10:24:43;31.70;45.90
80495;DHT22;69819;48.798;11.770;2023-08-30T10:27:13;31.70;47.40
80495;DHT22;69819;48.798;11.770;2023-08-30T10:29:43;31.80;46.70
80495;DHT22;69819;48.798;11.770;2023-08-30T10:32:11;31.90;46.60
80495;DHT22;69819;48.798;11.770;2023-08-30T10:34:37;32.10;46.40
80495;DHT22;69819;48.798;11.770;2023-08-30T10:37:06;32.20;45.80
80495;DHT22;69819;48.798;11.770;2023-08-30T10:39:39;32.20;44.90
80495;DHT22;69819;48.798;11.770;2023-08-30T10:42:13;32.30;44.80
80495;DHT22;69819;48.798;11.770;2023-08-30T10:44:58;32.30;44.90
80495;DHT22;69819;48.798;11.770;2023-08-30T10:47:31;32.30;44.40
80495;DHT22;69819;48.798;11.770;2023-08-30T10:50:08;32.30;45.10
80495;DHT22;69819;48.798;11.770;2023-08-30T10:52:36;32.40;44.70
80495;DHT22;69819;48.798;11.770;2023-08-30T10:55:08;32.40;45.00
80495;DHT22;69819;48.798;11.770;2023-08-30T10:57:37;32.40;44.30
80495;DHT22;69819;48.798;11.770;2023-08-30T11:00:08;32.30;44.30
80495;DHT22;69819;48.798;11.770;2023-08-30T11:02:38;32.20;44.10
80495;DHT22;69819;48.798;11.770;2023-08-30T11:05:08;32.20;43.60
80495;DHT22;69819;48.798;11.770;2023-08-30T11:07:35;32.10;43.90
80495;DHT22;69819;48.798;11.770;2023-08-30T11:10:03;31.90;43.80
80495;DHT22;69819;48.798;11.770;2023-08-30T11:12:30;31.80;43.60
80495;DHT22;69819;48.798;11.770;2023-08-30T11:14:56;31.60;43.50
80495;DHT22;69819;48.798;11.770;2023-08-30T11:17:22;31.50;43.50
80495;DHT22;69819;48.798;11.770;2023-08-30T11:19:51;31.40;43.60
80495;DHT22;69819;48.798;11.770;2023-08-30T11:22:22;31.30;43.60
80495;DHT22;69819;48.798;11.770;2023-08-30T11:24:48;31.20;43.80
80495;DHT22;69819;48.798;11.770;2023-08-30T11:27:17;31.10;43.80
80495;DHT22;69819;48.798;11.770;2023-08-30T11:29:43;31.10;43.70
80495;DHT22;69819;48.798;11.770;2023-08-30T11:32:09;31.00;44.30
80495;DHT22;69819;48.798;11.770;2023-08-30T11:34:35;31.00;43.40
80495;DHT22;69819;48.798;11.770;2023-08-30T11:37:01;31.00;43.50
80495;DHT22;69819;48.798;11.770;2023-08-30T11:39:30;30.90;43.30
80495;DHT22;69819;48.798;11.770;2023-08-30T11:41:59;31.00;43.20
80495;DHT22;69819;48.798;11.770;2023-08-30T11:44:32;30.90;43.00
80495;DHT22;69819;48.798;11.770;2023-08-30T11:46:58;31.00;42.90
80495;DHT22;69819;48.798;11.770;2023-08-30T11:49:26;31.00;43.10
80495;DHT22;69819;48.798;11.770;2023-08-30T11:51:54;31.00;43.10
80495;DHT22;69819;48.798;11.770;2023-08-30T11:54:23;31.00;42.80
80495;DHT22;69819;48.798;11.770;2023-08-30T11:56:50;31.00;42.70
80495;DHT22;69819;48.798;11.770;2023-08-30T11:59:22;31.00;42.70
80495;DHT22;69819;48.798;11.770;2023-08-30T12:01:49;31.00;42.00
80495;DHT22;69819;48.798;11.770;2023-08-30T12:04:17;31.10;42.80
80495;DHT22;69819;48.798;11.770;2023-08-30T12:06:50;31.10;42.90
80495;DHT22;69819;48.798;11.770;2023-08-30T12:09:18;31.10;42.90
80495;DHT22;69819;48.798;11.770;2023-08-30T12:11:48;31.20;42.80
80495;DHT22;69819;48.798;11.770;2023-08-30T12:14:14;31.20;42.60
80495;DHT22;69819;48.798;11.770;2023-08-30T12:16:40;31.30;42.50
80495;DHT22;69819;48.798;11.770;2023-08-30T12:19:10;31.30;42.20
80495;DHT22;69819;48.798;11.770;2023-08-30T12:21:44;31.30;41.70
80495;DHT22;69819;48.798;11.770;2023-08-30T12:24:12;31.30;41.40
80495;DHT22;69819;48.798;11.770;2023-08-30T12:26:38;31.30;41.80
80495;DHT22;69819;48.798;11.770;2023-08-30T12:29:05;31.20;41.50
80495;DHT22;69819;48.798;11.770;2023-08-30T12:31:32;31.20;41.50
80495;DHT22;69819;48.798;11.770;2023-08-30T12:33:58;31.20;41.50
80495;DHT22;69819;48.798;11.770;2023-08-30T12:36:24;31.20;41.40
80495;DHT22;69819;48.798;11.770;2023-08-30T12:38:50;31.10;41.30
80495;DHT22;69819;48.798;11.770;2023-08-30T12:41:16;31.00;41.30
80495;DHT22;69819;48.798;11.770;2023-08-30T12:43:42;30.90;41.30
80495;DHT22;69819;48.798;11.770;2023-08-30T12:46:08;30.90;41.30
80495;DHT22;69819;48.798;11.770;2023-08-30T12:48:33;30.80;41.40
80495;DHT22;69819;48.798;11.770;2023-08-30T12:50:59;30.80;41.20
80495;DHT22;69819;48.798;11.770;2023-08-30T12:53:25;30.70;41.10
80495;DHT22;69819;48.798;11.770;2023-08-30T12:55:51;30.60;41.00
80495;DHT22;69819;48.798;11.770;2023-08-30T12:58:16;30.60;40.90
80495;DHT22;69819;48.798;11.770;2023-08-30T13:00:42;30.50;40.70
80495;DHT22;69819;48.798;11.770;2023-08-30T13:03:08;30.40;40.50
80495;DHT22;69819;48.798;11.770;2023-08-30T13:05:34;30.30;40.30
80495;DHT22;69819;48.798;11.770;2023-08-30T13:08:01;30.20;40.30
80495;DHT22;69819;48.798;11.770;2023-08-30T13:10:27;30.20;40.40
80495;DHT22;69819;48.798;11.770;2023-08-30T13:12:53;30.10;40.40
80495;DHT22;69819;48.798;11.770;2023-08-30T13:15:19;30.10;40.60
80495;DHT22;69819;48.798;11.770;2023-08-30T13:17:45;30.10;40.60
80495;DHT22;69819;48.798;11.770;2023-08-30T13:20:11;29.90;40.40
80495;DHT22;69819;48.798;11.770;2023-08-30T13:22:36;29.90;40.30
80495;DHT22;69819;48.798;11.770;2023-08-30T13:25:02;29.80;40.40
80495;DHT22;69819;48.798;11.770;2023-08-30T13:27:33;29.80;40.40
80495;DHT22;69819;48.798;11.770;2023-08-30T13:29:59;29.70;40.40
80495;DHT22;69819;48.798;11.770;2023-08-30T13:32:24;29.60;40.30
80495;DHT22;69819;48.798;11.770;2023-08-30T13:34:51;29.60;40.50
80495;DHT22;69819;48.798;11.770;2023-08-30T13:37:16;29.50;40.50
80495;DHT22;69819;48.798;11.770;2023-08-30T13:39:43;29.50;40.40
80495;DHT22;69819;48.798;11.770;2023-08-30T13:42:09;29.40;40.20
80495;DHT22;69819;48.798;11.770;2023-08-30T13:44:35;29.30;39.80
80495;DHT22;69819;48.798;11.770;2023-08-30T13:47:04;29.10;39.60
80495;DHT22;69819;48.798;11.770;2023-08-30T13:49:30;28.90;39.50
80495;DHT22;69819;48.798;11.770;2023-08-30T13:51:57;28.60;39.50
80495;DHT22;69819;48.798;11.770;2023-08-30T13:54:23;28.30;39.50
80495;DHT22;69819;48.798;11.770;2023-08-30T13:56:49;28.00;39.50
80495;DHT22;69819;48.798;11.770;2023-08-30T13:59:15;27.60;39.70
80495;DHT22;69819;48.798;11.770;2023-08-30T14:01:42;27.30;39.90
80495;DHT22;69819;48.798;11.770;2023-08-30T14:04:08;27.00;40.00
80495;DHT22;69819;48.798;11.770;2023-08-30T14:06:34;26.70;39.80
80495;DHT22;69819;48.798;11.770;2023-08-30T14:09:02;26.40;40.10
80495;DHT22;69819;48.798;11.770;2023-08-30T14:11:30;26.10;40.20
80495;DHT22;69819;48.798;11.770;2023-08-30T14:13:56;25.80;40.30
80495;DHT22;69819;48.798;11.770;2023-08-30T14:16:21;25.40;41.20
80495;DHT22;69819;48.798;11.770;2023-08-30T14:18:47;25.20;40.70
80495;DHT22;69819;48.798;11.770;2023-08-30T14:21:13;24.90;41.20
80495;DHT22;69819;48.798;11.770;2023-08-30T14:23:39;24.60;41.80
80495;DHT22;69819;48.798;11.770;2023-08-30T14:26:05;24.30;42.20
80495;DHT22;69819;48.798;11.770;2023-08-30T14:28:36;24.10;42.80
80495;DHT22;69819;48.798;11.770;2023-08-30T14:31:02;23.70;43.50
80495;DHT22;69819;48.798;11.770;2023-08-30T14:33:31;23.40;43.70
80495;DHT22;69819;48.798;11.770;2023-08-30T14:35:57;23.20;44.30
80495;DHT22;69819;48.798;11.770;2023-08-30T14:38:23;22.90;44.70
80495;DHT22;69819;48.798;11.770;2023-08-30T14:41:01;22.70;45.30
80495;DHT22;69819;48.798;11.770;2023-08-30T14:43:31;22.40;46.80
80495;DHT22;69819;48.798;11.770;2023-08-30T14:46:01;22.20;46.30
80495;DHT22;69819;48.798;11.770;2023-08-30T14:48:28;22.00;46.90
80495;DHT22;69819;48.798;11.770;2023-08-30T14:50:54;21.80;47.00
80495;DHT22;69819;48.798;11.770;2023-08-30T14:53:20;21.70;47.70
80495;DHT22;69819;48.798;11.770;2023-08-30T14:55:46;21.60;47.90
80495;DHT22;69819;48.798;11.770;2023-08-30T14:58:12;21.60;48.30
80495;DHT22;69819;48.798;11.770;2023-08-30T15:00:39;21.50;48.70
80495;DHT22;69819;48.798;11.770;2023-08-30T15:03:05;21.50;49.10
80495;DHT22;69819;48.798;11.770;2023-08-30T15:05:31;21.50;49.20
80495;DHT22;69819;48.798;11.770;2023-08-30T15:07:57;21.50;49.40
80495;DHT22;69819;48.798;11.770;2023-08-30T15:10:23;21.50;49.50
80495;DHT22;69819;48.798;11.770;2023-08-30T15:12:49;21.50;49.50
80495;DHT22;69819;48.798;11.770;2023-08-30T15:15:15;21.50;49.70
80495;DHT22;69819;48.798;11.770;2023-08-30T15:17:41;21.50;49.80
80495;DHT22;69819;48.798;11.770;2023-08-30T15:20:07;21.50;50.10
80495;DHT22;69819;48.798;11.770;2023-08-30T15:22:34;21.60;50.20
80495;DHT22;69819;48.798;11.770;2023-08-30T15:25:00;21.60;51.00
80495;DHT22;69819;48.798;11.770;2023-08-30T15:27:33;21.60;50.50